Time;durP1;ratioP1;P1;durP2;ratioP2;P2;SDS_P1;SDS_P2;PMS_P1;PMS_P2;Temp;Humidity;BMP_temperature;BMP_pressure;BME280_temperature;BME280_humidity;BME280_pressure;Samples;Min_cycle;Max_cycle;Signal;HPM_P1;HPM_P2
2023/12/21 00:12:38;;;;;;;5.80;3.70;;;;;;;3.10;90.27;97548.62;436080;1252;106944;-39
2023/12/21 00:22:45;;;;;;;6.40;3.70;;;;;;;3.22;90.83;97541.27;435966;1253;99374;-40
2023/12/21 00:43:06;;;;;;;;;;;;;;;3.42;91.21;97538.52;422267;1296;635790;-39
2023/12/21 00:53:15;;;;;;;5.50;2.70;;;;;;;3.36;91.57;97532.93;432140;1265;364292;-39
2023/12/21 01:03:22;;;;;;;4.30;2.30;;;;;;;3.35;91.47;97519.48;432214;1265;106978;-40
2023/12/21 01:13:32;;;;;;;3.00;1.50;;;;;;;3.33;91.63;97506.30;432268;1265;109371;-38
2023/12/21 01:23:39;;;;;;;1.70;1.50;;;;;;;3.35;91.83;97489.68;432333;1265;95666;-40
2023/12/21 01:33:47;;;;;;;4.00;2.20;;;;;;;3.36;92.18;97476.29;432236;1262;108055;-39
2023/12/21 02:04:08;;;;;;;6.10;4.00;;;;;;;3.37;92.27;97418.84;432306;1265;108840;-40
2023/12/21 02:14:15;;;;;;;5.30;4.20;;;;;;;3.33;92.20;97404.80;432459;1265;107830;-40
2023/12/21 02:24:23;;;;;;;11.80;3.20;;;;;;;3.36;92.38;97388.98;432434;1263;96572;-40
2023/12/21 02:34:30;;;;;;;4.50;1.90;;;;;;;3.37;92.52;97364.41;433344;1266;108782;-40
2023/12/21 02:44:37;;;;;;;2.90;2.00;;;;;;;3.41;92.64;97343.66;432445;1276;108173;-37
2023/12/21 02:54:44;;;;;;;4.20;3.30;;;;;;;3.38;92.91;97322.08;432408;1266;96049;-39
2023/12/21 03:04:52;;;;;;;4.80;3.10;;;;;;;3.29;93.01;97298.75;432367;1266;95580;-38
2023/12/21 03:14:58;;;;;;;8.10;3.50;;;;;;;3.29;92.93;97274.71;432467;1263;109532;-39
2023/12/21 03:35:13;;;;;;;4.20;2.40;;;;;;;3.34;93.18;97234.57;432485;1263;96589;-40
2023/12/21 03:55:25;;;;;;;4.10;2.50;;;;;;;3.32;93.61;97195.61;432475;1267;96162;-38
2023/12/21 04:05:33;;;;;;;2.50;1.70;;;;;;;3.34;93.62;97169.55;432709;1263;118401;-40
2023/12/21 04:35:52;;;;;;;5.10;2.60;;;;;;;3.42;93.87;97106.43;432496;1264;108339;-38
2023/12/21 04:45:58;;;;;;;4.10;1.60;;;;;;;3.34;93.87;97085.02;432484;1264;106980;-40
2023/12/21 04:56:05;;;;;;;2.90;2.20;;;;;;;3.34;93.93;97064.48;432486;1266;95672;-39
2023/12/21 05:06:12;;;;;;;3.60;2.20;;;;;;;3.31;94.03;97049.87;432307;1264;107774;-39
2023/12/21 05:16:19;;;;;;;2.10;1.80;;;;;;;3.27;94.07;97039.52;432420;1267;108508;-40
2023/12/21 05:26:27;;;;;;;2.40;2.20;;;;;;;3.26;94.27;97033.21;434058;1257;95285;-38
2023/12/21 05:36:34;;;;;;;5.10;2.70;;;;;;;3.17;94.52;97019.20;434555;1258;110092;-42
2023/12/21 05:56:46;;;;;;;2.10;1.40;;;;;;;3.15;95.02;96978.61;434247;1258;95309;-40
2023/12/21 06:06:52;;;;;;;2.90;2.00;;;;;;;3.18;95.09;96973.11;434206;1257;109530;-40
2023/12/21 06:27:05;;;;;;;4.20;2.50;;;;;;;3.10;95.52;96968.75;434530;1256;95246;-39
2023/12/21 06:37:12;;;;;;;4.60;2.90;;;;;;;2.98;95.34;96960.48;434500;1258;108324;-39
2023/12/21 06:47:20;;;;;;;5.40;3.80;;;;;;;2.94;95.62;96962.66;434129;1257;96146;-39
2023/12/21 06:57:28;;;;;;;6.90;3.60;;;;;;;2.87;95.74;96962.65;434149;1261;108112;-40
2023/12/21 07:07:35;;;;;;;3.60;2.60;;;;;;;2.86;95.95;96953.18;434171;1259;109388;-38
2023/12/21 07:17:40;;;;;;;4.60;2.90;;;;;;;2.79;96.31;96951.20;434108;1256;95924;-40
2023/12/21 07:27:47;;;;;;;3.40;2.90;;;;;;;2.79;96.42;96949.73;434330;1256;109173;-41
2023/12/21 07:37:54;;;;;;;3.90;2.40;;;;;;;2.79;96.41;96946.08;434161;1257;108869;-39
2023/12/21 07:48:00;;;;;;;1.90;1.70;;;;;;;2.81;96.57;96924.16;434135;1259;95670;-39
2023/12/21 08:08:13;;;;;;;1.70;1.50;;;;;;;2.96;96.99;96901.67;434180;1257;108247;-40
2023/12/21 08:28:29;;;;;;;4.70;3.20;;;;;;;3.25;97.31;96868.64;434141;1259;96515;-39
2023/12/21 08:38:36;;;;;;;13.90;5.40;;;;;;;3.48;97.53;96844.38;434093;1257;106992;-40
2023/12/21 08:48:43;;;;;;;2.50;2.00;;;;;;;3.51;97.64;96812.63;434067;1259;95387;-41
2023/12/21 08:58:52;;;;;;;4.10;2.00;;;;;;;3.65;97.55;96770.17;433927;1259;107812;-40
2023/12/21 09:19:07;;;;;;;1.80;1.60;;;;;;;4.23;97.49;96720.21;434215;1258;96070;-39
2023/12/21 09:29:15;;;;;;;2.70;1.80;;;;;;;4.37;97.16;96705.01;434361;1256;107539;-39
2023/12/21 09:39:21;;;;;;;3.60;2.10;;;;;;;4.46;97.04;96684.20;434139;1259;108693;-40
2023/12/21 10:09:37;;;;;;;5.10;2.60;;;;;;;4.72;96.36;96614.09;434148;1259;95291;-39
2023/12/21 10:19:46;;;;;;;3.50;2.00;;;;;;;4.72;96.24;96594.92;434230;1256;96143;-40
2023/12/21 10:29:58;;;;;;;3.50;2.30;;;;;;;4.62;96.04;96579.40;434279;1256;108936;-40
2023/12/21 10:40:05;;;;;;;2.70;1.90;;;;;;;4.61;95.89;96539.27;434283;1259;107983;-39
2023/12/21 10:50:13;;;;;;;4.70;2.40;;;;;;;4.61;95.79;96510.23;434263;1256;96098;-39
2023/12/21 11:00:21;;;;;;;3.20;2.20;;;;;;;4.67;95.87;96478.77;434135;1259;108971;-40
2023/12/21 11:30:53;;;;;;;3.60;2.40;;;;;;;4.72;95.75;96396.75;434309;1256;110278;-38
2023/12/21 11:40:57;;;;;;;2.90;1.80;;;;;;;4.77;95.78;96369.36;434173;1259;107203;-40
2023/12/21 12:01:21;;;;;;;2.10;1.50;;;;;;;4.79;95.80;96318.64;435207;1253;108338;-39
2023/12/21 12:11:27;;;;;;;4.80;1.90;;;;;;;4.68;95.83;96294.19;435318;1255;95315;-40
2023/12/21 12:31:41;;;;;;;4.30;2.00;;;;;;;4.47;95.81;96234.23;435351;1250;110794;-38
2023/12/21 12:41:53;;;;;;;1.90;1.40;;;;;;;4.42;95.93;96207.25;436015;1254;109765;-39
2023/12/21 13:12:13;;;;;;;5.30;2.90;;;;;;;4.22;96.12;96135.09;435336;1250;109310;-39
2023/12/21 13:22:19;;;;;;;3.10;2.50;;;;;;;4.13;96.24;96109.45;435396;1251;95580;-39
2023/12/21 13:32:27;;;;;;;3.10;2.00;;;;;;;4.06;96.37;96075.52;435328;1250;107593;-39
2023/12/21 13:42:34;;;;;;;2.70;1.60;;;;;;;4.01;96.42;96040.05;435340;1254;106827;-39
2023/12/21 13:52:41;;;;;;;2.80;1.80;;;;;;;3.93;96.60;96009.79;435190;1250;95240;-40
2023/12/21 14:02:49;;;;;;;2.70;2.20;;;;;;;3.86;96.74;95978.21;435382;1251;107728;-40
2023/12/21 14:23:05;;;;;;;5.00;3.30;;;;;;;3.78;97.12;95924.67;435269;1254;108854;-40
2023/12/21 14:33:12;;;;;;;5.00;2.30;;;;;;;3.75;97.07;95887.08;435204;1254;109541;-40
2023/12/21 14:43:19;;;;;;;2.70;2.00;;;;;;;3.73;97.34;95853.61;435403;1251;95739;-39
2023/12/21 14:53:26;;;;;;;3.90;2.70;;;;;;;3.74;97.57;95823.92;435108;1254;107710;-39
2023/12/21 15:03:34;;;;;;;4.70;3.10;;;;;;;3.79;97.71;95801.90;435261;1255;96374;-40
2023/12/21 15:13:41;;;;;;;3.30;2.60;;;;;;;3.81;97.74;95762.98;435379;1252;107961;-38
2023/12/21 15:23:46;;;;;;;5.80;3.20;;;;;;;3.84;97.93;95736.22;435278;1254;107779;-38
2023/12/21 15:43:58;;;;;;;5.00;2.50;;;;;;;3.91;98.41;95683.27;435531;1256;109285;-40
2023/12/21 16:04:12;;;;;;;14.80;3.20;;;;;;;4.03;98.61;95610.55;435328;1250;110246;-39
2023/12/21 16:34:37;;;;;;;11.20;5.90;;;;;;;4.18;99.53;95518.34;435388;1256;108026;-39
2023/12/21 16:44:44;;;;;;;5.00;3.30;;;;;;;4.24;99.54;95490.39;435383;1250;96134;-39
2023/12/21 16:54:51;;;;;;;8.20;3.00;;;;;;;4.32;99.64;95475.36;435211;1256;108937;-40
2023/12/21 17:15:04;;;;;;;6.60;2.40;;;;;;;4.44;99.74;95444.08;435398;1250;96104;-39
2023/12/21 17:35:14;;;;;;;4.50;3.10;;;;;;;4.54;99.90;95399.94;435426;1255;97881;-39
2023/12/21 17:45:22;;;;;;;8.40;3.60;;;;;;;4.58;99.84;95374.37;435246;1256;109512;-40
2023/12/21 17:55:29;;;;;;;5.20;3.40;;;;;;;4.62;99.96;95371.26;435420;1255;108456;-40
2023/12/21 18:15:39;;;;;;;4.60;2.70;;;;;;;4.69;100.00;95342.42;435216;1256;108035;-40
2023/12/21 18:25:46;;;;;;;3.80;2.50;;;;;;;4.72;100.00;95308.02;435351;1265;97881;-40
2023/12/21 18:56:05;;;;;;;5.20;3.30;;;;;;;4.87;100.00;95286.95;435465;1256;96643;-38
2023/12/21 19:06:13;;;;;;;7.40;3.20;;;;;;;4.91;100.00;95275.87;435307;1256;107406;-39
2023/12/21 19:16:19;;;;;;;4.60;2.60;;;;;;;4.91;100.00;95262.05;435302;1256;97804;-40
2023/12/21 19:26:27;;;;;;;6.70;2.30;;;;;;;4.95;100.00;95258.39;435262;1267;110288;-40
2023/12/21 19:36:33;;;;;;;4.70;2.90;;;;;;;4.99;100.00;95260.53;435269;1256;108750;-40
2023/12/21 19:56:44;;;;;;;3.70;2.20;;;;;;;5.00;100.00;95236.07;435172;1250;108009;-40
2023/12/21 20:06:52;;;;;;;3.50;2.40;;;;;;;4.99;100.00;95250.00;435322;1255;97960;-40
2023/12/21 20:16:58;;;;;;;6.10;3.20;;;;;;;5.00;100.00;95247.06;435383;1250;110240;-39
2023/12/21 20:27:04;;;;;;;5.40;3.70;;;;;;;5.09;100.00;95223.82;435321;1258;109308;-39
2023/12/21 20:47:18;;;;;;;5.70;3.50;;;;;;;5.27;100.00;95226.77;435385;1250;108395;-39
2023/12/21 21:17:37;;;;;;;6.30;3.40;;;;;;;5.46;100.00;95269.33;435461;1250;109330;-39
2023/12/21 21:27:44;;;;;;;11.50;5.40;;;;;;;5.50;100.00;95285.68;435398;1256;97237;-39
2023/12/21 21:37:51;;;;;;;7.70;2.50;;;;;;;5.46;100.00;95292.48;435257;1256;107803;-40
2023/12/21 21:58:03;;;;;;;7.10;4.00;;;;;;;5.37;100.00;95326.36;435453;1256;111011;-39
2023/12/21 22:08:15;;;;;;;6.00;2.10;;;;;;;5.28;99.89;95325.31;435297;1263;108301;-39
2023/12/21 22:28:27;;;;;;;5.30;3.10;;;;;;;5.01;99.27;95338.49;435513;1255;109955;-38
2023/12/21 22:58:47;;;;;;;12.10;2.50;;;;;;;4.87;98.45;95363.60;435351;1264;106337;-41
2023/12/21 23:08:55;;;;;;;6.50;2.10;;;;;;;4.76;97.95;95383.89;435296;1255;96725;-40
2023/12/21 23:19:00;;;;;;;8.00;1.40;;;;;;;4.63;97.46;95410.71;435444;1254;110636;-39
2023/12/21 23:29:08;;;;;;;5.60;2.10;;;;;;;4.53;97.41;95414.12;435281;1263;107282;-42
2023/12/21 23:39:13;;;;;;;14.30;2.30;;;;;;;4.48;97.21;95428.73;435351;1263;97890;-40
2023/12/21 23:49:18;;;;;;;7.70;1.90;;;;;;;4.50;96.77;95455.64;435323;1254;108156;-39
